Time;durP1;ratioP1;P1;durP2;ratioP2;P2;SDS_P1;SDS_P2;PMS_P1;PMS_P2;Temp;Humidity;BMP_temperature;BMP_pressure;BME280_temperature;BME280_humidity;BME280_pressure;Samples;Min_cycle;Max_cycle;Signal;HPM_P1;HPM_P2
2023/03/24 00:02:08;;;;;;;6.90;3.10;;;;;;;;;;5014881;28;20065;-58
2023/03/24 00:04:34;;;;;;;6.10;3.70;;;;;;;;;;5015851;28;20041;-60
2023/03/24 00:07:02;;;;;;;7.07;3.95;;;;;;;;;;5017508;28;20137;-63
2023/03/24 00:09:31;;;;;;;;;;;;;;;;;;5019142;28;20141;-57
2023/03/24 00:11:56;;;;;;;9.32;3.42;;;;;;;;;;5015830;28;19952;-59
2023/03/24 00:14:22;;;;;;;7.50;3.75;;;;;;;;;;5014125;28;20127;-60
2023/03/24 00:16:48;;;;;;;8.80;3.97;;;;;;;;;;5016748;28;20037;-58
2023/03/24 00:19:15;;;;;;;7.50;5.00;;;;;;;;;;5015349;28;20079;-59
2023/03/24 00:21:41;;;;;;;8.15;4.18;;;;;;;;;;5017297;28;20033;-60
2023/03/24 00:24:06;;;;;;;6.82;4.05;;;;;;;;;;5018007;28;20040;-58
2023/03/24 00:26:32;;;;;;;7.03;4.10;;;;;;;;;;5015643;28;20060;-60
2023/03/24 00:28:58;;;;;;;7.93;4.05;;;;;;;;;;5017259;28;20489;-59
2023/03/24 00:31:24;;;;;;;7.97;4.28;;;;;;;;;;5020045;28;20035;-59
2023/03/24 00:33:49;;;;;;;9.40;4.22;;;;;;;;;;5020891;28;20057;-56
2023/03/24 00:36:17;;;;;;;10.73;4.15;;;;;;;;;;5021940;28;20526;-60
2023/03/24 00:38:42;;;;;;;5.95;3.70;;;;;;;;;;5019040;28;20042;-63
2023/03/24 00:41:09;;;;;;;7.28;4.07;;;;;;;;;;5036439;28;20057;-56
2023/03/24 00:43:35;;;;;;;6.47;3.72;;;;;;;;;;5015132;28;20108;-59
2023/03/24 00:46:02;;;;;;;6.22;3.35;;;;;;;;;;5018703;28;20103;-59
2023/03/24 00:48:28;;;;;;;;;;;;;;;;;;5020467;28;20049;-59
2023/03/24 00:50:53;;;;;;;7.85;4.03;;;;;;;;;;5022631;28;19956;-58
2023/03/24 00:53:19;;;;;;;6.25;3.80;;;;;;;;;;5020632;28;20044;-58
2023/03/24 00:55:46;;;;;;;8.25;3.92;;;;;;;;;;5018441;28;20034;-58
2023/03/24 00:58:17;;;;;;;5.78;3.75;;;;;;;;;;5020038;28;20037;-58
2023/03/24 01:00:43;;;;;;;5.65;3.78;;;;;;;;;;5023308;28;20576;-59
2023/03/24 01:03:08;;;;;;;6.93;3.40;;;;;;;;;;5034183;28;20025;-59
2023/03/24 01:05:35;;;;;;;6.68;3.60;;;;;;;;;;5021849;28;20060;-59
2023/03/24 01:08:03;;;;;;;8.18;4.05;;;;;;;;;;5029066;28;20469;-59
2023/03/24 01:10:30;;;;;;;6.00;3.45;;;;;;;;;;5015904;28;20022;-61
2023/03/24 01:12:57;;;;;;;5.72;3.45;;;;;;;;;;5018289;28;20033;-59
2023/03/24 01:15:25;;;;;;;7.30;3.70;;;;;;;;;;5021486;28;20033;-58
2023/03/24 01:17:52;;;;;;;5.00;3.55;;;;;;;;;;5022555;28;20048;-58
2023/03/24 01:20:17;;;;;;;6.75;3.42;;;;;;;;;;5031171;28;20036;-59
2023/03/24 01:22:43;;;;;;;5.82;3.30;;;;;;;;;;5018201;28;20044;-63
2023/03/24 01:25:11;;;;;;;5.38;3.35;;;;;;;;;;5015519;28;20585;-60
2023/03/24 01:27:36;;;;;;;7.10;3.90;;;;;;;;;;5016914;28;20366;-59
2023/03/24 01:30:04;;;;;;;8.85;3.60;;;;;;;;;;5016705;28;20489;-58
2023/03/24 01:32:30;;;;;;;5.90;3.58;;;;;;;;;;5019482;28;20037;-59
2023/03/24 01:34:55;;;;;;;6.40;3.88;;;;;;;;;;5020644;28;20018;-59
2023/03/24 01:37:22;;;;;;;5.40;3.67;;;;;;;;;;5023351;28;20029;-60
2023/03/24 01:39:48;;;;;;;6.50;3.30;;;;;;;;;;5005456;28;20076;-60
2023/03/24 01:42:17;;;;;;;8.13;4.03;;;;;;;;;;5018630;28;20061;-59
2023/03/24 01:44:47;;;;;;;6.18;3.40;;;;;;;;;;5018222;28;20954;-58
2023/03/24 01:47:12;;;;;;;6.15;3.78;;;;;;;;;;5022310;28;20532;-59
2023/03/24 01:49:44;;;;;;;5.25;3.30;;;;;;;;;;5018883;28;20022;-59
2023/03/24 01:52:12;;;;;;;6.78;3.40;;;;;;;;;;5021879;28;20483;-58
2023/03/24 01:54:59;;;;;;;4.90;3.10;;;;;;;;;;5019534;28;20033;-60
2023/03/24 01:57:37;;;;;;;5.00;3.40;;;;;;;;;;5028073;28;20041;-59
2023/03/24 02:00:06;;;;;;;6.40;3.85;;;;;;;;;;5019127;28;20444;-57
2023/03/24 02:03:13;;;;;;;6.43;3.20;;;;;;;;;;5016065;28;20037;-59
2023/03/24 02:05:47;;;;;;;7.60;3.67;;;;;;;;;;5035888;28;20033;-57
2023/03/24 02:08:12;;;;;;;4.80;3.20;;;;;;;;;;5017927;28;20033;-60
2023/03/24 02:10:38;;;;;;;5.15;3.35;;;;;;;;;;5019412;28;20621;-57
2023/03/24 02:13:03;;;;;;;5.68;3.50;;;;;;;;;;5013519;28;20087;-58
2023/03/24 02:15:30;;;;;;;8.57;3.47;;;;;;;;;;5037060;28;20026;-60
2023/03/24 02:18:04;;;;;;;5.90;3.50;;;;;;;;;;5015156;28;20052;-62
2023/03/24 02:20:51;;;;;;;6.18;3.33;;;;;;;;;;5000894;28;20081;-58
2023/03/24 02:23:29;;;;;;;4.53;2.90;;;;;;;;;;5020998;28;20128;-60
2023/03/24 02:26:13;;;;;;;5.65;3.30;;;;;;;;;;5017518;28;20033;-58
2023/03/24 02:28:48;;;;;;;5.30;3.15;;;;;;;;;;5034450;28;20612;-60
2023/03/24 02:31:14;;;;;;;5.20;3.20;;;;;;;;;;5021265;28;20449;-59
2023/03/24 02:33:59;;;;;;;6.55;3.35;;;;;;;;;;5017066;28;20029;-61
2023/03/24 02:36:27;;;;;;;8.90;3.50;;;;;;;;;;5014768;28;20068;-58
2023/03/24 02:39:05;;;;;;;7.70;3.17;;;;;;;;;;5022209;28;20042;-60
2023/03/24 02:41:49;;;;;;;5.50;3.65;;;;;;;;;;5018274;28;20033;-60
2023/03/24 02:44:27;;;;;;;7.03;3.78;;;;;;;;;;5037217;28;20026;-57
2023/03/24 02:46:58;;;;;;;8.95;3.50;;;;;;;;;;5023003;28;20033;-59
2023/03/24 02:49:40;;;;;;;6.93;3.63;;;;;;;;;;5021928;28;20479;-58
2023/03/24 02:52:24;;;;;;;6.63;3.80;;;;;;;;;;5023911;28;20447;-58
2023/03/24 02:54:54;;;;;;;5.75;3.88;;;;;;;;;;5022491;28;20140;-62
2023/03/24 02:57:31;;;;;;;8.10;4.05;;;;;;;;;;5020757;28;20038;-58
2023/03/24 03:00:13;;;;;;;8.00;4.20;;;;;;;;;;5024003;28;20529;-58
2023/03/24 03:03:10;;;;;;;5.60;3.25;;;;;;;;;;5021437;28;20077;-57
2023/03/24 03:05:41;;;;;;;6.30;3.42;;;;;;;;;;5021138;28;20029;-57
2023/03/24 03:08:08;;;;;;;5.50;3.22;;;;;;;;;;5035976;28;20040;-58
2023/03/24 03:10:33;;;;;;;;;;;;;;;;;;5022970;28;20033;-59
2023/03/24 03:13:00;;;;;;;5.65;3.50;;;;;;;;;;5025965;28;20533;-59
2023/03/24 03:15:37;;;;;;;6.88;3.45;;;;;;;;;;5024786;28;20029;-59
2023/03/24 03:18:21;;;;;;;8.05;4.07;;;;;;;;;;5025396;28;20053;-59
2023/03/24 03:20:49;;;;;;;6.20;3.35;;;;;;;;;;5037843;28;20128;-59
2023/03/24 03:23:17;;;;;;;5.55;3.13;;;;;;;;;;5024511;28;20048;-57
2023/03/24 03:25:49;;;;;;;6.40;3.47;;;;;;;;;;5019115;28;20116;-62
2023/03/24 03:28:16;;;;;;;8.15;3.50;;;;;;;;;;5031328;28;20717;-58
2023/03/24 03:30:51;;;;;;;5.25;3.15;;;;;;;;;;5013077;28;20530;-60
2023/03/24 03:33:23;;;;;;;4.88;3.25;;;;;;;;;;5020429;28;20040;-59
2023/03/24 03:36:14;;;;;;;5.97;3.45;;;;;;;;;;5021334;28;20029;-57
2023/03/24 03:38:58;;;;;;;6.43;3.33;;;;;;;;;;5015533;28;20038;-58
2023/03/24 03:41:23;;;;;;;4.63;3.22;;;;;;;;;;5021654;28;20238;-57
2023/03/24 03:43:49;;;;;;;4.85;3.05;;;;;;;;;;5037070;28;20578;-59
2023/03/24 03:46:15;;;;;;;4.22;3.05;;;;;;;;;;5025158;28;20034;-60
2023/03/24 03:48:42;;;;;;;5.67;2.90;;;;;;;;;;5022929;28;20029;-58
2023/03/24 03:51:08;;;;;;;4.65;3.10;;;;;;;;;;5028537;28;20033;-59
2023/03/24 03:53:38;;;;;;;4.88;3.10;;;;;;;;;;5024088;28;20044;-58
2023/03/24 03:56:03;;;;;;;7.25;3.30;;;;;;;;;;5024551;28;20033;-58
2023/03/24 03:58:33;;;;;;;4.13;3.03;;;;;;;;;;5005806;28;20120;-60
2023/03/24 04:00:58;;;;;;;5.95;3.40;;;;;;;;;;5037274;28;20140;-60
2023/03/24 04:03:48;;;;;;;6.72;3.38;;;;;;;;;;5020294;28;20057;-59
2023/03/24 04:06:25;;;;;;;5.05;3.00;;;;;;;;;;5019857;28;20042;-58
2023/03/24 04:09:00;;;;;;;7.30;3.17;;;;;;;;;;5020150;28;20038;-60
2023/03/24 04:11:48;;;;;;;6.38;3.20;;;;;;;;;;5024327;28;20040;-61
2023/03/24 04:14:50;;;;;;;4.97;3.13;;;;;;;;;;5022145;28;20040;-60
2023/03/24 04:17:34;;;;;;;7.72;3.65;;;;;;;;;;5013958;28;20056;-57
2023/03/24 04:20:00;;;;;;;6.97;3.45;;;;;;;;;;5021965;28;20448;-58
2023/03/24 04:22:38;;;;;;;7.47;3.47;;;;;;;;;;5012403;28;20530;-59
2023/03/24 04:25:34;;;;;;;8.18;3.28;;;;;;;;;;5030319;28;20121;-56
2023/03/24 04:27:59;;;;;;;5.03;3.38;;;;;;;;;;5018328;28;20038;-58
2023/03/24 04:30:39;;;;;;;4.73;3.10;;;;;;;;;;5029967;28;20112;-58
2023/03/24 04:33:08;;;;;;;4.80;3.17;;;;;;;;;;5024319;28;20286;-59
2023/03/24 04:35:39;;;;;;;6.07;3.20;;;;;;;;;;5020923;28;20037;-58
2023/03/24 04:38:32;;;;;;;5.57;3.45;;;;;;;;;;5022074;28;20128;-57
2023/03/24 04:41:16;;;;;;;8.90;4.72;;;;;;;;;;5024400;28;20048;-61
2023/03/24 04:43:43;;;;;;;12.43;6.13;;;;;;;;;;5021402;28;20378;-61
2023/03/24 04:46:09;;;;;;;10.40;5.47;;;;;;;;;;5018512;28;20037;-59
2023/03/24 04:48:48;;;;;;;8.38;4.38;;;;;;;;;;5022075;28;20402;-58
2023/03/24 04:51:34;;;;;;;6.43;3.47;;;;;;;;;;5019980;28;20137;-60
2023/03/24 04:54:03;;;;;;;7.50;4.32;;;;;;;;;;5019379;28;20040;-61
2023/03/24 04:56:33;;;;;;;7.60;4.28;;;;;;;;;;5021534;28;20490;-60
2023/03/24 04:59:14;;;;;;;7.57;3.80;;;;;;;;;;5024420;28;20052;-58
2023/03/24 05:01:48;;;;;;;5.78;3.42;;;;;;;;;;5021998;28;20029;-61
2023/03/24 05:04:37;;;;;;;6.28;3.70;;;;;;;;;;5015043;28;20033;-59
2023/03/24 05:07:22;;;;;;;7.05;3.88;;;;;;;;;;5017357;28;20041;-59
2023/03/24 05:09:51;;;;;;;6.07;4.03;;;;;;;;;;5019531;28;20033;-61
2023/03/24 05:12:17;;;;;;;6.53;3.78;;;;;;;;;;5023781;28;20456;-59
2023/03/24 05:15:18;;;;;;;8.45;3.92;;;;;;;;;;4982152;28;20084;-62
2023/03/24 05:17:46;;;;;;;7.72;3.45;;;;;;;;;;5008887;28;20433;-55
2023/03/24 05:20:11;;;;;;;5.53;3.60;;;;;;;;;;5020862;28;20036;-58
2023/03/24 05:22:40;;;;;;;5.13;3.50;;;;;;;;;;5021393;28;20028;-58
2023/03/24 05:25:05;;;;;;;4.55;2.80;;;;;;;;;;5030608;28;20033;-59
2023/03/24 05:27:31;;;;;;;5.47;2.30;;;;;;;;;;5037902;28;20035;-59
2023/03/24 05:30:01;;;;;;;3.45;2.20;;;;;;;;;;5022970;28;20030;-60
2023/03/24 05:32:31;;;;;;;3.75;2.30;;;;;;;;;;5021032;28;20128;-60
2023/03/24 05:34:56;;;;;;;3.47;2.00;;;;;;;;;;5027643;28;20855;-57
2023/03/24 05:37:32;;;;;;;3.80;2.22;;;;;;;;;;5022480;28;20071;-61
2023/03/24 05:39:57;;;;;;;6.47;2.42;;;;;;;;;;5016928;28;20152;-58
2023/03/24 05:42:36;;;;;;;3.63;2.20;;;;;;;;;;5034153;28;20037;-57
2023/03/24 05:45:03;;;;;;;5.63;2.67;;;;;;;;;;5017999;28;20026;-57
2023/03/24 05:47:29;;;;;;;6.10;2.75;;;;;;;;;;5018115;28;20517;-61
2023/03/24 05:49:54;;;;;;;5.05;3.35;;;;;;;;;;5016773;28;20113;-57
2023/03/24 05:52:21;;;;;;;7.07;3.55;;;;;;;;;;5028146;28;20542;-61
2023/03/24 05:54:50;;;;;;;9.57;3.72;;;;;;;;;;5025554;28;20120;-55
2023/03/24 05:57:20;;;;;;;6.18;3.35;;;;;;;;;;5017646;28;20052;-56
2023/03/24 06:00:15;;;;;;;5.55;3.22;;;;;;;;;;5020538;28;20038;-53
2023/03/24 06:02:49;;;;;;;6.25;3.08;;;;;;;;;;5015780;28;20030;-58
2023/03/24 06:05:48;;;;;;;5.78;3.45;;;;;;;;;;5028292;28;20156;-59
2023/03/24 06:08:15;;;;;;;5.32;2.97;;;;;;;;;;5020908;28;20762;-56
2023/03/24 06:10:41;;;;;;;4.68;3.13;;;;;;;;;;5013284;28;20029;-61
2023/03/24 06:13:07;;;;;;;7.10;3.05;;;;;;;;;;5002242;28;20048;-56
2023/03/24 06:15:34;;;;;;;4.65;2.78;;;;;;;;;;5000480;28;20034;-57
2023/03/24 06:18:15;;;;;;;5.15;3.03;;;;;;;;;;5016282;28;20058;-59
2023/03/24 06:20:43;;;;;;;4.53;2.92;;;;;;;;;;5020556;28;20037;-53
2023/03/24 06:23:16;;;;;;;4.55;2.78;;;;;;;;;;5016401;28;20034;-58
2023/03/24 06:26:03;;;;;;;4.47;3.13;;;;;;;;;;5034919;28;20047;-58
2023/03/24 06:28:33;;;;;;;4.88;3.35;;;;;;;;;;5036492;28;20033;-58
2023/03/24 06:31:03;;;;;;;5.90;3.40;;;;;;;;;;5023598;28;20044;-59
2023/03/24 06:33:33;;;;;;;5.90;3.08;;;;;;;;;;5020489;28;20391;-57
2023/03/24 06:36:00;;;;;;;4.68;3.00;;;;;;;;;;4997564;28;20041;-58
2023/03/24 06:38:26;;;;;;;;;;;;;;;;;;5031391;28;20155;-57
2023/03/24 06:40:51;;;;;;;4.47;3.05;;;;;;;;;;5031112;28;20383;-59
2023/03/24 06:43:16;;;;;;;6.18;3.58;;;;;;;;;;5021684;28;20770;-58
2023/03/24 06:45:43;;;;;;;4.32;3.10;;;;;;;;;;5024770;28;20030;-58
2023/03/24 06:48:13;;;;;;;6.32;3.50;;;;;;;;;;5020976;28;20060;-62
2023/03/24 06:50:38;;;;;;;6.00;3.35;;;;;;;;;;5023328;28;20025;-58
2023/03/24 06:53:07;;;;;;;5.80;3.30;;;;;;;;;;5015528;28;20549;-56
2023/03/24 06:55:35;;;;;;;5.95;3.75;;;;;;;;;;5014740;28;20026;-58
2023/03/24 06:58:00;;;;;;;5.93;3.55;;;;;;;;;;4999979;28;20049;-58
2023/03/24 07:00:35;;;;;;;6.57;4.30;;;;;;;;;;5019576;28;20087;-59
2023/03/24 07:03:24;;;;;;;4.72;3.50;;;;;;;;;;5010212;28;20103;-59
2023/03/24 07:06:25;;;;;;;5.90;3.58;;;;;;;;;;5034976;28;20500;-60
2023/03/24 07:08:53;;;;;;;5.22;3.67;;;;;;;;;;5030312;28;20377;-58
2023/03/24 07:11:22;;;;;;;6.43;4.38;;;;;;;;;;5017577;28;20026;-59
2023/03/24 07:13:51;;;;;;;6.03;4.22;;;;;;;;;;5013915;28;20030;-60
2023/03/24 07:16:16;;;;;;;6.15;4.15;;;;;;;;;;5029093;28;20067;-58
2023/03/24 07:18:43;;;;;;;8.27;4.30;;;;;;;;;;5015517;28;20097;-57
2023/03/24 07:21:08;;;;;;;5.13;3.83;;;;;;;;;;5009230;28;20049;-59
2023/03/24 07:23:35;;;;;;;5.80;3.70;;;;;;;;;;5015522;28;20127;-58
2023/03/24 07:26:09;;;;;;;7.30;3.55;;;;;;;;;;5014505;28;20141;-62
2023/03/24 07:28:47;;;;;;;6.80;4.30;;;;;;;;;;5016407;28;20037;-60
2023/03/24 07:31:21;;;;;;;9.05;4.40;;;;;;;;;;5011238;28;20629;-58
2023/03/24 07:33:53;;;;;;;8.32;4.70;;;;;;;;;;5013231;28;20048;-58
2023/03/24 07:36:18;;;;;;;8.10;4.88;;;;;;;;;;5028244;28;20077;-60
2023/03/24 07:38:43;;;;;;;9.65;4.82;;;;;;;;;;5013680;28;20050;-58
2023/03/24 07:41:14;;;;;;;5.45;4.00;;;;;;;;;;5021895;28;20022;-59
2023/03/24 07:43:45;;;;;;;8.18;4.28;;;;;;;;;;5029794;28;20125;-59
2023/03/24 07:46:36;;;;;;;6.50;4.22;;;;;;;;;;5011254;28;20045;-58
2023/03/24 07:49:02;;;;;;;9.88;4.28;;;;;;;;;;5029048;28;20037;-61
2023/03/24 07:51:28;;;;;;;6.93;3.70;;;;;;;;;;5029349;28;20126;-58
2023/03/24 07:54:16;;;;;;;8.23;3.97;;;;;;;;;;5017321;28;20113;-55
2023/03/24 07:56:45;;;;;;;6.00;3.90;;;;;;;;;;5023547;28;20037;-57
2023/03/24 07:59:11;;;;;;;6.55;4.30;;;;;;;;;;5011986;28;20071;-59
2023/03/24 08:01:59;;;;;;;5.82;3.75;;;;;;;;;;5015667;28;20256;-56
2023/03/24 08:04:35;;;;;;;7.03;4.40;;;;;;;;;;5013913;28;20064;-55
2023/03/24 08:07:11;;;;;;;10.80;4.00;;;;;;;;;;5014055;28;20116;-57
2023/03/24 08:09:36;;;;;;;6.82;3.88;;;;;;;;;;5011920;28;20030;-53
2023/03/24 08:12:01;;;;;;;5.93;3.47;;;;;;;;;;5014283;28;20438;-59
2023/03/24 08:14:27;;;;;;;6.03;3.85;;;;;;;;;;5022704;28;20065;-57
2023/03/24 08:16:52;;;;;;;5.90;3.63;;;;;;;;;;5030880;28;20042;-59
2023/03/24 08:19:17;;;;;;;9.98;4.20;;;;;;;;;;5015507;28;20057;-61
2023/03/24 08:21:43;;;;;;;7.45;4.40;;;;;;;;;;5015099;28;20026;-58
2023/03/24 08:24:08;;;;;;;5.70;3.70;;;;;;;;;;5013548;28;20046;-58
2023/03/24 08:26:34;;;;;;;7.07;3.90;;;;;;;;;;5014770;28;20585;-58
2023/03/24 08:28:59;;;;;;;5.03;3.60;;;;;;;;;;5015758;28;20029;-58
2023/03/24 08:31:30;;;;;;;6.40;3.50;;;;;;;;;;5015609;28;20032;-56
2023/03/24 08:33:55;;;;;;;5.88;3.45;;;;;;;;;;5012582;28;20437;-58
2023/03/24 08:36:25;;;;;;;7.65;3.70;;;;;;;;;;5017247;28;20030;-58
2023/03/24 08:38:53;;;;;;;7.38;3.35;;;;;;;;;;5013300;28;20108;-58
2023/03/24 08:41:18;;;;;;;5.22;3.72;;;;;;;;;;5013629;28;20032;-58
2023/03/24 08:43:44;;;;;;;7.25;3.90;;;;;;;;;;5014934;28;20041;-56
2023/03/24 08:46:09;;;;;;;7.45;3.80;;;;;;;;;;5013574;28;20057;-56
2023/03/24 08:48:36;;;;;;;8.15;3.90;;;;;;;;;;5015347;28;20083;-55
2023/03/24 08:51:08;;;;;;;7.10;3.83;;;;;;;;;;5014556;28;20683;-58
2023/03/24 08:53:33;;;;;;;5.68;3.33;;;;;;;;;;5018857;28;20033;-57
2023/03/24 08:55:59;;;;;;;6.15;3.45;;;;;;;;;;5013564;28;20033;-58
2023/03/24 08:58:24;;;;;;;5.93;3.63;;;;;;;;;;5016557;28;20083;-59
2023/03/24 09:00:50;;;;;;;7.25;3.50;;;;;;;;;;5015043;28;20111;-58
2023/03/24 09:03:20;;;;;;;6.57;3.72;;;;;;;;;;5014486;28;20041;-60
2023/03/24 09:05:46;;;;;;;5.22;3.22;;;;;;;;;;5012343;28;20153;-57
2023/03/24 09:08:13;;;;;;;4.38;3.10;;;;;;;;;;5011692;28;20120;-59
2023/03/24 09:10:39;;;;;;;8.33;3.50;;;;;;;;;;5015865;28;20113;-57
2023/03/24 09:13:05;;;;;;;6.00;3.50;;;;;;;;;;5012859;28;20029;-58
2023/03/24 09:15:30;;;;;;;10.38;4.38;;;;;;;;;;5012442;28;20274;-57
2023/03/24 09:17:55;;;;;;;4.07;2.88;;;;;;;;;;5011925;28;20042;-58
2023/03/24 09:20:21;;;;;;;10.75;6.93;;;;;;;;;;5013117;28;20029;-59
2023/03/24 09:22:46;;;;;;;8.43;4.47;;;;;;;;;;5012115;28;20034;-58
2023/03/24 09:25:14;;;;;;;5.47;2.95;;;;;;;;;;5013929;28;20029;-58
2023/03/24 09:27:39;;;;;;;6.30;4.22;;;;;;;;;;5013251;28;20129;-55
2023/03/24 09:30:05;;;;;;;7.88;3.55;;;;;;;;;;5014949;28;20109;-56
2023/03/24 09:32:32;;;;;;;6.35;3.05;;;;;;;;;;5011538;28;20041;-58
2023/03/24 09:34:58;;;;;;;4.70;2.60;;;;;;;;;;5009402;28;20382;-59
2023/03/24 09:37:23;;;;;;;4.78;3.40;;;;;;;;;;5009976;28;20042;-57
2023/03/24 09:39:48;;;;;;;4.30;2.95;;;;;;;;;;5013199;28;20048;-57
2023/03/24 09:42:18;;;;;;;6.15;3.17;;;;;;;;;;5004221;28;20037;-59
2023/03/24 09:44:46;;;;;;;4.72;3.00;;;;;;;;;;5014133;28;20038;-60
2023/03/24 09:47:11;;;;;;;4.80;3.03;;;;;;;;;;5012572;28;20081;-58
2023/03/24 09:49:40;;;;;;;3.95;2.80;;;;;;;;;;5012311;28;20560;-60
2023/03/24 09:52:06;;;;;;;5.90;3.33;;;;;;;;;;5012727;28;20482;-56
2023/03/24 09:54:34;;;;;;;6.82;4.07;;;;;;;;;;5011056;28;20033;-62
2023/03/24 09:56:59;;;;;;;4.78;3.33;;;;;;;;;;5016419;28;20709;-53
2023/03/24 09:59:27;;;;;;;5.35;3.38;;;;;;;;;;5015548;28;20144;-55
2023/03/24 10:01:53;;;;;;;4.93;2.95;;;;;;;;;;5015909;28;20497;-58
2023/03/24 10:04:20;;;;;;;5.95;3.30;;;;;;;;;;5017595;28;20034;-56
2023/03/24 10:06:47;;;;;;;4.93;3.17;;;;;;;;;;5012127;28;20873;-59
2023/03/24 10:09:13;;;;;;;;;;;;;;;;;;5012259;28;20057;-56
2023/03/24 10:11:45;;;;;;;7.03;3.20;;;;;;;;;;5018425;28;19909;-55
2023/03/24 10:14:29;;;;;;;4.88;2.95;;;;;;;;;;5012772;28;20038;-56
2023/03/24 10:17:13;;;;;;;3.75;2.70;;;;;;;;;;5012744;28;21131;-56
2023/03/24 10:19:53;;;;;;;4.45;2.85;;;;;;;;;;5012841;28;20176;-57
2023/03/24 10:22:29;;;;;;;3.70;2.45;;;;;;;;;;5014983;28;20737;-58
2023/03/24 10:25:13;;;;;;;5.00;2.85;;;;;;;;;;5027379;28;20036;-57
2023/03/24 10:27:42;;;;;;;3.80;2.20;;;;;;;;;;5012094;28;20518;-59
2023/03/24 10:30:18;;;;;;;4.57;2.70;;;;;;;;;;5013978;28;20045;-57
2023/03/24 10:32:44;;;;;;;4.13;2.30;;;;;;;;;;5024962;28;20411;-57
2023/03/24 10:35:36;;;;;;;6.40;2.80;;;;;;;;;;5016454;28;20033;-59
2023/03/24 10:38:03;;;;;;;3.35;2.35;;;;;;;;;;5013428;28;20037;-58
2023/03/24 10:40:29;;;;;;;3.70;2.40;;;;;;;;;;5011879;28;20069;-56
2023/03/24 10:42:57;;;;;;;5.35;2.47;;;;;;;;;;5012884;28;20506;-57
2023/03/24 10:45:22;;;;;;;;;;;;;;;;;;5013633;28;20481;-57
2023/03/24 10:47:48;;;;;;;3.67;2.40;;;;;;;;;;5012429;28;19913;-56
2023/03/24 10:50:13;;;;;;;5.07;2.60;;;;;;;;;;5012663;28;20021;-56
2023/03/24 10:52:44;;;;;;;3.10;2.00;;;;;;;;;;5012334;28;20745;-61
2023/03/24 10:55:13;;;;;;;3.90;2.60;;;;;;;;;;5013354;28;20044;-56
2023/03/24 10:57:41;;;;;;;6.05;2.10;;;;;;;;;;5028566;28;20067;-59
2023/03/24 11:00:16;;;;;;;3.60;2.50;;;;;;;;;;4998442;28;20053;-56
2023/03/24 11:02:42;;;;;;;3.53;2.33;;;;;;;;;;5028581;28;20457;-60
2023/03/24 11:05:10;;;;;;;5.97;2.40;;;;;;;;;;5014179;28;20535;-58
2023/03/24 11:07:37;;;;;;;4.13;2.40;;;;;;;;;;5017603;28;20092;-57
2023/03/24 11:10:08;;;;;;;6.95;2.72;;;;;;;;;;5016909;28;20041;-60
2023/03/24 11:12:38;;;;;;;4.40;2.22;;;;;;;;;;5015745;28;20053;-57
2023/03/24 11:15:17;;;;;;;4.35;2.25;;;;;;;;;;5016082;28;20485;-59
2023/03/24 11:17:46;;;;;;;5.68;2.35;;;;;;;;;;5021242;28;20033;-58
2023/03/24 11:20:20;;;;;;;4.15;2.50;;;;;;;;;;5017723;28;20036;-56
2023/03/24 11:23:08;;;;;;;3.88;2.10;;;;;;;;;;5016444;28;20097;-51
2023/03/24 11:25:38;;;;;;;4.07;2.22;;;;;;;;;;5007902;28;20571;-59
2023/03/24 11:28:07;;;;;;;4.00;2.10;;;;;;;;;;5015288;28;20044;-57
2023/03/24 11:30:34;;;;;;;2.55;1.70;;;;;;;;;;5015836;28;20061;-56
2023/03/24 11:33:00;;;;;;;;;;;;;;;;;;5020681;28;20540;-54
2023/03/24 11:35:26;;;;;;;1.90;1.30;;;;;;;;;;5015361;28;19932;-56
2023/03/24 11:37:51;;;;;;;4.68;1.70;;;;;;;;;;5029856;28;20045;-57
2023/03/24 11:40:22;;;;;;;2.92;1.60;;;;;;;;;;5015081;28;20033;-56
2023/03/24 11:42:53;;;;;;;2.35;1.60;;;;;;;;;;5013665;28;20060;-54
2023/03/24 11:45:39;;;;;;;3.05;1.50;;;;;;;;;;5019612;28;20034;-52
2023/03/24 11:48:10;;;;;;;2.05;1.50;;;;;;;;;;5015322;28;20037;-58
2023/03/24 11:50:37;;;;;;;3.60;1.50;;;;;;;;;;5014128;28;20519;-56
2023/03/24 11:53:12;;;;;;;2.50;1.40;;;;;;;;;;5017386;28;20030;-58
2023/03/24 11:55:49;;;;;;;2.13;1.65;;;;;;;;;;5012030;28;20406;-57
2023/03/24 11:58:26;;;;;;;2.45;1.50;;;;;;;;;;5014379;28;20101;-53
2023/03/24 12:00:51;;;;;;;;;;;;;;;;;;5015066;28;20403;-53
2023/03/24 12:03:26;;;;;;;4.20;1.60;;;;;;;;;;5015480;28;19920;-58
2023/03/24 12:05:56;;;;;;;2.55;1.33;;;;;;;;;;5016082;28;20660;-54
2023/03/24 12:08:24;;;;;;;1.73;1.25;;;;;;;;;;5015176;28;20132;-58
2023/03/24 12:11:05;;;;;;;2.75;1.70;;;;;;;;;;5014795;28;20112;-57
2023/03/24 12:13:30;;;;;;;2.83;1.50;;;;;;;;;;5014803;28;20489;-57
2023/03/24 12:16:00;;;;;;;1.80;1.35;;;;;;;;;;5015496;28;20033;-58
2023/03/24 12:18:44;;;;;;;3.53;1.60;;;;;;;;;;5014885;28;20574;-62
2023/03/24 12:21:21;;;;;;;2.15;1.60;;;;;;;;;;5020258;28;20519;-58
2023/03/24 12:23:47;;;;;;;3.30;1.90;;;;;;;;;;5015640;28;20033;-60
2023/03/24 12:26:13;;;;;;;3.58;1.90;;;;;;;;;;5013720;28;20033;-60
2023/03/24 12:28:41;;;;;;;3.70;2.13;;;;;;;;;;5027605;28;20500;-60
2023/03/24 12:31:27;;;;;;;3.75;1.85;;;;;;;;;;5011955;28;20026;-60
2023/03/24 12:34:23;;;;;;;5.05;1.80;;;;;;;;;;5014218;28;20107;-59
2023/03/24 12:36:53;;;;;;;2.73;1.80;;;;;;;;;;5013916;28;20560;-60
2023/03/24 12:39:28;;;;;;;2.10;1.58;;;;;;;;;;5016317;28;20033;-59
2023/03/24 12:41:54;;;;;;;3.30;1.90;;;;;;;;;;5012955;28;20105;-59
2023/03/24 12:44:42;;;;;;;3.63;1.90;;;;;;;;;;5015690;28;20136;-62
2023/03/24 12:47:24;;;;;;;2.58;1.77;;;;;;;;;;5016163;28;20037;-61
2023/03/24 12:49:55;;;;;;;3.83;1.80;;;;;;;;;;5013213;28;20025;-59
2023/03/24 12:52:28;;;;;;;2.10;1.60;;;;;;;;;;5028459;28;20038;-59
2023/03/24 12:55:13;;;;;;;2.30;1.65;;;;;;;;;;5013793;28;20021;-58
2023/03/24 12:57:41;;;;;;;3.33;1.92;;;;;;;;;;5026910;28;20037;-61
2023/03/24 13:00:15;;;;;;;10.88;5.60;;;;;;;;;;5012676;28;20101;-61
2023/03/24 13:02:44;;;;;;;5.07;1.98;;;;;;;;;;5029097;28;20029;-58
2023/03/24 13:05:21;;;;;;;2.88;1.83;;;;;;;;;;5021377;28;20962;-61
2023/03/24 13:07:52;;;;;;;1.50;1.33;;;;;;;;;;5016136;28;20236;-60
2023/03/24 13:10:24;;;;;;;2.08;1.30;;;;;;;;;;5014956;28;20042;-61
2023/03/24 13:12:55;;;;;;;1.60;1.35;;;;;;;;;;5017119;28;20282;-58
2023/03/24 13:15:42;;;;;;;1.88;1.30;;;;;;;;;;5016054;28;20064;-60
2023/03/24 13:18:10;;;;;;;1.65;1.30;;;;;;;;;;5005706;28;20145;-62
2023/03/24 13:20:54;;;;;;;1.52;1.30;;;;;;;;;;5018082;28;20116;-58
2023/03/24 13:23:20;;;;;;;1.23;1.10;;;;;;;;;;5013953;28;20048;-58
2023/03/24 13:25:51;;;;;;;1.10;1.00;;;;;;;;;;5013973;28;20397;-59
2023/03/24 13:28:21;;;;;;;1.45;1.20;;;;;;;;;;5014421;28;20491;-60
2023/03/24 13:30:47;;;;;;;1.20;1.10;;;;;;;;;;5016211;28;20093;-58
2023/03/24 13:33:15;;;;;;;2.53;1.25;;;;;;;;;;5015312;28;20029;-56
2023/03/24 13:35:40;;;;;;;;;;;;;;;;;;5017314;28;20038;-59
2023/03/24 13:38:15;;;;;;;5.50;1.07;;;;;;;;;;5015138;28;19917;-57
2023/03/24 13:40:41;;;;;;;2.05;1.20;;;;;;;;;;5031399;28;20098;-56
2023/03/24 13:43:17;;;;;;;5.35;1.42;;;;;;;;;;5014353;28;20037;-63
2023/03/24 13:45:47;;;;;;;3.45;1.30;;;;;;;;;;5017091;28;20112;-57
2023/03/24 13:48:12;;;;;;;3.45;1.40;;;;;;;;;;5012273;28;20038;-59
2023/03/24 13:50:58;;;;;;;2.03;1.23;;;;;;;;;;5013445;28;20451;-60
2023/03/24 13:53:44;;;;;;;2.42;1.45;;;;;;;;;;5018188;28;20026;-58
2023/03/24 13:56:10;;;;;;;3.38;1.42;;;;;;;;;;5011596;28;20506;-58
2023/03/24 13:58:45;;;;;;;3.78;1.55;;;;;;;;;;5019121;28;20037;-58
2023/03/24 14:01:10;;;;;;;2.75;1.17;;;;;;;;;;5012812;28;20053;-58
2023/03/24 14:03:40;;;;;;;5.78;1.73;;;;;;;;;;5013244;28;20449;-59
2023/03/24 14:06:09;;;;;;;3.25;1.50;;;;;;;;;;5014029;28;20033;-57
2023/03/24 14:08:43;;;;;;;3.13;1.50;;;;;;;;;;5014262;28;20076;-58
2023/03/24 14:11:27;;;;;;;4.90;1.70;;;;;;;;;;5013177;28;20079;-57
2023/03/24 14:13:52;;;;;;;3.92;1.58;;;;;;;;;;5017718;28;20029;-61
2023/03/24 14:16:40;;;;;;;4.47;1.70;;;;;;;;;;5013867;28;20029;-58
2023/03/24 14:19:15;;;;;;;5.63;1.85;;;;;;;;;;5000496;28;20108;-59
2023/03/24 14:21:40;;;;;;;3.42;1.50;;;;;;;;;;5006152;28;20026;-58
2023/03/24 14:24:14;;;;;;;3.83;1.55;;;;;;;;;;5005288;28;20080;-60
2023/03/24 14:26:40;;;;;;;5.80;2.10;;;;;;;;;;5011190;28;20620;-60
2023/03/24 14:29:25;;;;;;;4.47;1.70;;;;;;;;;;5012177;28;20036;-59
2023/03/24 14:31:57;;;;;;;6.15;1.85;;;;;;;;;;5003925;28;20112;-60
2023/03/24 14:34:26;;;;;;;6.93;1.88;;;;;;;;;;5008147;28;20026;-60
2023/03/24 14:36:59;;;;;;;3.95;1.90;;;;;;;;;;5015569;28;20025;-58
2023/03/24 14:39:43;;;;;;;2.47;1.70;;;;;;;;;;5006305;28;20030;-58
2023/03/24 14:42:27;;;;;;;4.03;1.70;;;;;;;;;;5013150;28;20030;-57
2023/03/24 14:44:54;;;;;;;4.72;1.90;;;;;;;;;;5019824;28;20469;-60
2023/03/24 14:47:37;;;;;;;6.45;2.65;;;;;;;;;;5011939;28;20029;-58
2023/03/24 14:50:17;;;;;;;5.93;2.00;;;;;;;;;;5014036;28;20042;-58
2023/03/24 14:52:46;;;;;;;3.67;2.00;;;;;;;;;;5014390;28;20047;-62
2023/03/24 14:55:17;;;;;;;7.80;2.42;;;;;;;;;;5007278;28;20037;-60
2023/03/24 14:57:53;;;;;;;6.68;2.35;;;;;;;;;;5015048;28;20035;-62
2023/03/24 15:00:34;;;;;;;3.97;2.23;;;;;;;;;;5012054;28;20160;-58
2023/03/24 15:03:09;;;;;;;8.10;2.65;;;;;;;;;;5008728;28;20029;-58
2023/03/24 15:05:35;;;;;;;3.25;2.15;;;;;;;;;;5014284;28;20104;-60
2023/03/24 15:08:20;;;;;;;4.43;2.40;;;;;;;;;;5008089;28;20030;-59
2023/03/24 15:10:55;;;;;;;6.82;2.60;;;;;;;;;;5013795;28;20026;-60
2023/03/24 15:13:23;;;;;;;7.10;4.10;;;;;;;;;;5015043;28;20033;-59